Weather History for Two Harbors, MN

Change the Weather History Date:

Friday, February 21, 2014

  Actual Average Record
Temperature  
Mean Temperature 16 °F -  
Max Temperature 28 °F 31 °F 47 °F (1961)
Min Temperature 3 °F 13 °F -24 °F (1963)
Degree Days  
Heating Degree Days 50    
Moisture  
Dew Point 7 °F    
Average Humidity 71    
Maximum Humidity 86    
Minimum Humidity 61    
Precipitation  
Precipitation 0.24 in - - ()
Sea Level Pressure  
Sea Level Pressure 29.20 in    
Wind  
Wind Speed 11 mph (WNW)    
Max Wind Speed 22 mph    
Max Gust Speed 34 mph    
Visibility 4 miles    
Events Snow    
Averages and records for this station are not official NWS values.
T = Trace of Precipitation, MM = Missing Value Source: NWS Daily Summary

Daily Weather History Graph

Daily Weather History Graph

Search for Another Location

Airport:

Trip Planner

Search our weather history database for the weather conditions in past years. The results will help you decide how hot, cold, wet, or windy it might be!

Date:

Astronomy

Feb. 21, 2014 Rise Set
Actual Time 7:01 AM CST 5:40 PM CST
Civil Twilight 6:30 AM CST 6:11 PM CST
Nautical Twilight 5:54 AM CST 6:46 PM CST
Astronomical Twilight 5:19 AM CST 7:22 PM CST
Moon No Moon Rise 9:59 AM CST (2/21)
Length of Visible Light 11h 41m
Length of Day
10h 39m
Waning Gibbous, 60% of the Moon is Illuminated
Feb 21
Waning Gibbous
Feb 22
Last Quarter
Mar 1
New
Mar 8
First Quarter
Mar 16
Full

Hourly Weather History & Observations

Time (CST) Temp. Windchill Dew Point Humidity Pressure Visibility Wind Dir Wind Speed Gust Speed Precip Events Conditions
12:13 AM 28.4 °F 19.1 °F 24.8 °F 86% 29.09 in 1.5 mi NNE 10.4 mph 18.4 mph 0.01 in Snow Light Snow
12:33 AM 28.4 °F 20.4 °F 24.8 °F 86% 29.09 in 1.5 mi NNE 8.1 mph 17.3 mph 0.02 in Snow Light Snow
12:54 AM 28.4 °F 23.3 °F 24.8 °F 86% 29.08 in 2.0 mi North 4.6 mph - 0.04 in Snow Light Snow
1:13 AM 28.4 °F 24.6 °F 23.0 °F 80% 29.07 in 1.8 mi NW 3.5 mph - 0.01 in Snow Light Snow
1:33 AM 26.6 °F 20.0 °F 21.2 °F 80% 29.06 in 2.0 mi NW 5.8 mph - 0.03 in Snow Light Snow
1:54 AM 26.6 °F 19.1 °F 21.2 °F 80% 29.05 in 2.0 mi NW 6.9 mph - 0.05 in Snow Light Snow
2:13 AM 26.6 °F 18.2 °F 21.2 °F 80% 29.05 in 1.8 mi NW 8.1 mph - N/A Snow Light Snow
2:33 AM 26.6 °F 20.0 °F 21.2 °F 80% 29.04 in 1.2 mi NNW 5.8 mph - 0.04 in Snow Light Snow
2:54 AM 26.6 °F 19.1 °F 21.2 °F 80% 29.03 in 0.8 mi NW 6.9 mph - 0.07 in Snow Snow
3:13 AM 26.6 °F 19.1 °F 21.2 °F 80% 29.03 in 0.8 mi NW 6.9 mph - 0.02 in Snow Snow
3:33 AM 26.6 °F 18.2 °F 21.2 °F 80% 29.03 in 0.8 mi NW 8.1 mph - 0.04 in Snow Snow
3:54 AM 26.6 °F 18.2 °F 21.2 °F 80% 29.03 in 1.0 mi West 8.1 mph - 0.06 in Snow Snow
4:13 AM 23.0 °F 11.7 °F 17.6 °F 80% 29.03 in 1.2 mi WNW 11.5 mph 20.7 mph 0.01 in Snow Light Snow
4:33 AM 21.2 °F 10.1 °F 15.8 °F 80% 29.04 in 1.8 mi WNW 10.4 mph 24.2 mph 0.01 in Snow Light Snow
4:54 AM 21.2 °F 9.5 °F 15.8 °F 80% 29.03 in 1.0 mi WNW 11.5 mph 23.0 mph 0.01 in Snow Light Snow
5:13 AM 19.4 °F 9.5 °F 15.8 °F 86% 29.03 in 1.2 mi WNW 8.1 mph 19.6 mph N/A Snow Light Snow
5:33 AM 19.4 °F 7.2 °F 14.0 °F 80% 29.03 in 1.5 mi NW 11.5 mph 20.7 mph N/A Snow Light Snow
5:54 AM 17.6 °F 5.7 °F 12.2 °F 79% 29.03 in 2.0 mi WNW 10.4 mph 20.7 mph N/A Snow Light Snow
6:13 AM 17.6 °F 5.7 °F 10.4 °F 73% 29.04 in 2.5 mi WNW 10.4 mph 24.2 mph N/A Snow Light Snow
6:33 AM 15.8 °F 3.4 °F 10.4 °F 79% 29.04 in 2.0 mi WNW 10.4 mph 26.5 mph N/A Snow Light Snow
6:53 AM 15.8 °F 0.9 °F 8.6 °F 73% 29.05 in 2.0 mi WNW 15.0 mph 26.5 mph N/A Snow Light Snow
7:13 AM 15.8 °F 2.7 °F 8.6 °F 73% 29.06 in 1.5 mi WNW 11.5 mph 25.3 mph N/A Snow Light Snow
7:33 AM 15.8 °F 0.9 °F 8.6 °F 73% 29.06 in 1.0 mi WNW 15.0 mph 27.6 mph N/A Snow Light Snow
7:53 AM 14.0 °F -2.0 °F 8.6 °F 79% 29.06 in 1.5 mi WNW 16.1 mph 26.5 mph 0.01 in Snow Light Snow
8:13 AM 14.0 °F -0.8 °F 6.8 °F 73% 29.07 in 1.5 mi WNW 13.8 mph 21.9 mph N/A Snow Light Snow
8:34 AM 14.0 °F -2.0 °F 6.8 °F 73% 29.07 in 1.2 mi WNW 16.1 mph 25.3 mph N/A Snow Light Snow
8:53 AM 12.2 °F -2.5 °F 6.8 °F 79% 29.07 in 1.8 mi WNW 12.7 mph 23.0 mph N/A Snow Light Snow
9:13 AM 12.2 °F -1.0 °F 5.0 °F 73% 29.08 in 3.0 mi WNW 10.4 mph 24.2 mph N/A Snow Light Snow
9:34 AM 12.2 °F -3.7 °F 5.0 °F 73% 29.09 in 2.5 mi West 15.0 mph 25.3 mph N/A Snow Light Snow
9:53 AM 12.2 °F -1.8 °F 5.0 °F 73% 29.10 in 3.0 mi West 11.5 mph 20.7 mph N/A Snow Light Snow
10:13 AM 14.0 °F -1.4 °F 5.0 °F 67% 29.11 in 4.0 mi West 15.0 mph 26.5 mph N/A   Haze
10:34 AM 14.0 °F -3.0 °F 5.0 °F 67% 29.12 in 4.0 mi West 18.4 mph 26.5 mph N/A   Haze
10:53 AM 14.0 °F -2.0 °F 5.0 °F 67% 29.12 in 1.8 mi West 16.1 mph 28.8 mph N/A Snow Light Snow
11:13 AM 14.0 °F -1.4 °F 5.0 °F 67% 29.13 in 2.0 mi West 15.0 mph 24.2 mph N/A   Haze
11:33 AM 15.8 °F -0.6 °F 6.8 °F 68% 29.13 in 2.0 mi West 18.4 mph 31.1 mph N/A   Haze
11:53 AM 15.8 °F -0.6 °F 6.8 °F 68% 29.14 in 1.5 mi West 18.4 mph 34.5 mph N/A Snow Light Snow
12:13 PM 15.8 °F -0.2 °F 6.8 °F 68% 29.14 in 2.0 mi West 17.3 mph 29.9 mph N/A   Haze
12:33 PM 14.0 °F -0.8 °F 5.0 °F 67% 29.14 in 1.2 mi West 13.8 mph 32.2 mph N/A Snow Light Snow
12:53 PM 14.0 °F -2.5 °F 3.2 °F 62% 29.15 in 1.8 mi West 17.3 mph 32.2 mph N/A   Haze
1:13 PM 14.0 °F -3.9 °F 3.2 °F 62% 29.16 in 2.5 mi West 20.7 mph 28.8 mph N/A   Haze
1:33 PM 12.2 °F -1.0 °F 3.2 °F 67% 29.17 in 2.0 mi West 10.4 mph 29.9 mph N/A   Haze
1:53 PM 12.2 °F -0.2 °F 3.2 °F 67% 29.18 in 2.0 mi West 9.2 mph 26.5 mph N/A Snow Light Snow
2:13 PM 12.2 °F -2.5 °F 3.2 °F 67% 29.19 in 2.0 mi West 12.7 mph 33.4 mph N/A Snow Light Snow
2:33 PM 12.2 °F -4.3 °F 3.2 °F 67% 29.20 in 2.0 mi West 16.1 mph 28.8 mph N/A   Haze
2:53 PM 12.2 °F -1.8 °F 3.2 °F 67% 29.22 in 2.5 mi West 11.5 mph 34.5 mph N/A   Haze
3:13 PM 12.2 °F -6.7 °F 1.4 °F 62% 29.24 in 2.5 mi West 21.9 mph 33.4 mph N/A   Haze
3:33 PM 12.2 °F -5.8 °F 1.4 °F 62% 29.25 in 4.0 mi West 19.6 mph 29.9 mph N/A   Haze
3:53 PM 12.2 °F -6.7 °F 1.4 °F 62% 29.26 in 3.0 mi West 21.9 mph 31.1 mph N/A   Haze
4:13 PM 12.2 °F -6.3 °F 1.4 °F 62% 29.27 in 3.0 mi West 20.7 mph 31.1 mph N/A   Haze
4:33 PM 10.4 °F -7.7 °F 1.4 °F 67% 29.29 in 2.5 mi West 18.4 mph 29.9 mph N/A   Haze
4:53 PM 10.4 °F -3.3 °F 1.4 °F 67% 29.31 in 3.0 mi West 10.4 mph 24.2 mph N/A   Haze
5:13 PM 10.4 °F -6.6 °F -0.4 °F 62% 29.32 in 10.0 mi West 16.1 mph 25.3 mph N/A   Clear
5:33 PM 8.6 °F -7.7 °F -0.4 °F 67% 29.33 in 7.0 mi West 13.8 mph 24.2 mph N/A   Scattered Clouds
5:53 PM 8.6 °F -3.7 °F -0.4 °F 67% 29.34 in 5.0 mi West 8.1 mph 19.6 mph N/A   Haze
6:13 PM 8.6 °F -7.7 °F -0.4 °F 67% 29.35 in 7.0 mi West 13.8 mph 18.4 mph N/A   Mostly Cloudy
6:33 PM 8.6 °F -10.0 °F -0.4 °F 67% 29.36 in 7.0 mi West 18.4 mph 24.2 mph N/A   Mostly Cloudy
6:53 PM 6.8 °F -10.0 °F -0.4 °F 72% 29.37 in 10.0 mi West 13.8 mph 23.0 mph N/A   Mostly Cloudy
7:13 PM 6.8 °F -7.8 °F -0.4 °F 72% 29.38 in 7.0 mi West 10.4 mph 21.9 mph N/A   Scattered Clouds
7:33 PM 6.8 °F -10.0 °F -2.2 °F 67% 29.40 in 7.0 mi West 13.8 mph 25.3 mph N/A   Clear
7:53 PM 6.8 °F -9.3 °F -2.2 °F 67% 29.41 in 10.0 mi West 12.7 mph 23.0 mph N/A   Clear
8:13 PM 6.8 °F -10.0 °F -2.2 °F 67% 29.42 in 7.0 mi West 13.8 mph 24.2 mph N/A   Scattered Clouds
8:33 PM 6.8 °F -10.7 °F -2.2 °F 67% 29.43 in 10.0 mi West 15.0 mph 20.7 mph N/A   Scattered Clouds
8:53 PM 6.8 °F -9.3 °F -2.2 °F 67% 29.44 in 7.0 mi West 12.7 mph 24.2 mph N/A   Clear
9:13 PM 6.8 °F -6.9 °F -2.2 °F 67% 29.44 in 10.0 mi West 9.2 mph 21.9 mph N/A   Clear
9:33 PM 6.8 °F -10.7 °F -2.2 °F 67% 29.45 in 7.0 mi West 15.0 mph 20.7 mph N/A   Clear
9:53 PM 5.0 °F -9.1 °F -4.0 °F 66% 29.46 in 10.0 mi West 9.2 mph 20.7 mph N/A Snow Light Snow
10:13 PM 5.0 °F -9.1 °F -4.0 °F 66% 29.47 in 10.0 mi West 9.2 mph 25.3 mph N/A   Clear
10:33 PM 5.0 °F -13.0 °F -5.8 °F 61% 29.47 in 7.0 mi West 15.0 mph 27.6 mph N/A   Clear
10:53 PM 3.2 °F -15.3 °F -5.8 °F 66% 29.48 in 10.0 mi West 15.0 mph 29.9 mph N/A   Clear
11:13 PM 3.2 °F -12.2 °F -5.8 °F 66% 29.48 in 10.0 mi West 10.4 mph 21.9 mph N/A   Clear
11:33 PM 3.2 °F -13.9 °F -5.8 °F 66% 29.48 in 10.0 mi West 12.7 mph 19.6 mph N/A   Clear
11:53 PM 3.2 °F -15.3 °F -5.8 °F 66% 29.49 in 10.0 mi West 15.0 mph 26.5 mph N/A   Clear